createdAt,value
2018-09-27T00:03:33.589Z,3
2018-09-27T00:18:33.560Z,2.3
2018-09-27T00:33:46.067Z,2.3
2018-09-27T00:48:45.812Z,2.8
2018-09-27T01:08:49.513Z,3.1
2018-09-27T01:24:02.792Z,2.5
2018-09-27T01:39:02.657Z,2.7
2018-09-27T01:54:05.567Z,2.2
2018-09-27T02:14:02.741Z,2.6
2018-09-27T02:29:14.584Z,2.1
2018-09-27T02:44:14.503Z,2.5
2018-09-27T03:04:14.347Z,2.3
2018-09-27T03:19:26.225Z,2.8
2018-09-27T03:34:26.484Z,2.9
2018-09-27T03:49:26.354Z,2.4
2018-09-27T04:09:26.329Z,2.4
2018-09-27T04:24:41.276Z,3.1
2018-09-27T04:39:41.494Z,3
2018-09-27T04:59:43.409Z,4.4
2018-09-27T05:29:55.157Z,3.7
2018-09-27T05:44:55.037Z,3.2
2018-09-27T06:04:55.206Z,3.4
2018-09-27T06:50:12.856Z,4.2
2018-09-27T07:10:25.330Z,2.4
2018-09-27T07:25:25.434Z,2.1
2018-09-27T07:40:25.227Z,2.1
2018-09-27T08:00:25.359Z,2.2
2018-09-27T08:30:38.294Z,3.1
2018-09-27T08:45:38.820Z,3.1
2018-09-27T09:05:53.050Z,3.6
2018-09-27T09:20:53.048Z,3.4
2018-09-27T09:55:52.973Z,3.6
2018-09-27T10:26:05.713Z,4.4
2018-09-27T10:41:05.613Z,5.3
2018-09-27T11:01:18.086Z,4.9
2018-09-27T11:16:18.080Z,4.6
2018-09-27T12:06:31.533Z,4.8
2018-09-27T12:36:33.322Z,4.7
2018-09-27T12:56:46.103Z,4.6
2018-09-27T13:11:45.996Z,5.7
2018-09-27T13:26:46.411Z,5.1
2018-09-27T13:46:46.153Z,3.5
2018-09-27T14:31:59.307Z,2
2018-09-27T15:07:10.976Z,1.6
2018-09-27T15:22:11.076Z,1.7
2018-09-27T15:42:10.884Z,1.5
2018-09-27T16:12:25.465Z,2
2018-09-27T16:32:29.192Z,1.6
2018-09-27T17:02:36.836Z,2
2018-09-27T17:17:37.115Z,2
2018-09-27T17:37:37.999Z,1.7
2018-09-27T17:52:50.801Z,1.9
2018-09-27T18:07:50.262Z,1.9
2018-09-27T18:27:50.966Z,2.4
2018-09-27T18:43:05.523Z,1.9
2018-09-27T18:58:03.917Z,2.9
2018-09-27T19:48:20.344Z,9
2018-09-27T20:38:22.071Z,5.5
2018-09-27T20:53:21.920Z,5.1
2018-09-27T21:58:50.762Z,4.5
2018-09-27T22:13:53.561Z,5.1
2018-09-27T22:34:04.399Z,4.9
2018-09-27T22:49:04.396Z,4.4
2018-09-27T23:04:04.513Z,3.8
2018-09-27T23:39:17.616Z,4
2018-09-27T23:54:17.568Z,4.2
